createdAt,value
2018-04-25T00:00:11.572Z,90.25
2018-04-25T00:01:12.142Z,90.06
2018-04-25T00:02:12.703Z,90.34
2018-04-25T00:03:13.268Z,89.39
2018-04-25T00:04:13.825Z,89.67
2018-04-25T00:05:14.373Z,89.87
2018-04-25T00:06:14.926Z,90.25
2018-04-25T00:07:15.475Z,90.73
2018-04-25T00:08:16.013Z,89.96
2018-04-25T00:09:16.569Z,90.44
2018-04-25T00:10:17.117Z,90.06
2018-04-25T00:11:17.666Z,89.29
2018-04-25T00:12:18.214Z,89.39
2018-04-25T00:13:18.768Z,89.01
2018-04-25T00:14:19.316Z,89.20
2018-04-25T00:15:19.865Z,89.87
2018-04-25T00:16:20.411Z,89.96
2018-04-25T00:17:20.962Z,90.25
2018-04-25T00:18:21.507Z,89.39
2018-04-25T00:19:22.058Z,89.96
2018-04-25T00:20:22.609Z,90.34
2018-04-25T00:21:23.157Z,89.96
2018-04-25T00:22:23.707Z,90.44
2018-04-25T00:23:24.255Z,89.29
2018-04-25T00:24:24.844Z,90.63
2018-04-25T00:25:25.363Z,90.82
2018-04-25T00:26:25.905Z,90.53
2018-04-25T00:27:26.452Z,90.73
2018-04-25T00:28:27.004Z,91.11
2018-04-25T00:29:27.554Z,91.39
2018-04-25T00:30:28.104Z,91.97
2018-04-25T00:31:28.653Z,91.49
2018-04-25T00:32:29.205Z,91.88
2018-04-25T00:33:29.757Z,91.02
2018-04-25T00:34:30.300Z,91.59
2018-04-25T00:35:30.843Z,91.88
2018-04-25T00:36:31.386Z,91.11
2018-04-25T00:37:31.936Z,91.68
2018-04-25T00:38:32.498Z,91.25
2018-04-25T00:39:33.044Z,91.39
2018-04-25T00:40:33.595Z,91.20
2018-04-25T00:41:34.138Z,91.30
2018-04-25T00:42:34.685Z,91.59
2018-04-25T00:43:35.234Z,91.39
2018-04-25T00:44:35.782Z,91.02
2018-04-25T00:45:36.345Z,91.49
2018-04-25T00:46:36.872Z,91.59
2018-04-25T00:47:37.417Z,91.59
2018-04-25T00:48:37.969Z,91.30
2018-04-25T00:49:38.524Z,91.54
2018-04-25T00:50:39.074Z,91.49
2018-04-25T00:51:39.620Z,91.97
2018-04-25T00:52:40.166Z,91.20
2018-04-25T00:53:40.713Z,91.68
2018-04-25T00:54:41.262Z,92.07
2018-04-25T00:55:41.812Z,93.50
2018-04-25T00:56:42.357Z,93.40
2018-04-25T00:57:42.908Z,92.93
2018-04-25T00:58:43.445Z,92.69
2018-04-25T00:59:43.999Z,92.11
2018-04-25T01:00:44.549Z,92.83
2018-04-25T01:01:45.092Z,92.59
2018-04-25T01:02:45.645Z,92.25
2018-04-25T01:03:46.191Z,91.88
2018-04-25T01:04:46.743Z,91.68
2018-04-25T01:05:47.290Z,92.16
2018-04-25T01:06:47.836Z,91.39
2018-04-25T01:07:48.386Z,91.88
2018-04-25T01:08:48.934Z,91.68
2018-04-25T01:09:49.480Z,91.49
2018-04-25T01:10:50.030Z,91.30
2018-04-25T01:11:50.595Z,91.20
2018-04-25T01:12:51.124Z,91.39
2018-04-25T01:13:51.674Z,91.02
2018-04-25T01:14:52.224Z,91.02
2018-04-25T01:15:52.778Z,90.63
2018-04-25T01:16:53.319Z,91.49
2018-04-25T01:17:53.868Z,91.88
2018-04-25T01:18:54.410Z,91.78
2018-04-25T01:19:54.959Z,91.39
2018-04-25T01:20:55.508Z,91.11
2018-04-25T01:21:56.055Z,91.39
2018-04-25T01:22:56.601Z,91.39
2018-04-25T01:23:57.154Z,91.25
2018-04-25T01:24:57.702Z,91.20
2018-04-25T01:25:58.254Z,91.68
2018-04-25T01:26:58.806Z,91.49
2018-04-25T01:27:59.355Z,91.11
2018-04-25T01:28:59.909Z,90.96
2018-04-25T01:30:00.456Z,90.58
2018-04-25T01:31:01.000Z,91.35
2018-04-25T01:32:01.545Z,90.96
2018-04-25T01:33:02.095Z,90.01
2018-04-25T01:34:02.640Z,89.34
2018-04-25T01:35:03.195Z,90.01
2018-04-25T01:36:03.749Z,90.58
2018-04-25T01:37:04.304Z,89.34
2018-04-25T01:38:04.853Z,89.34
2018-04-25T01:39:05.403Z,89.15
2018-04-25T01:40:05.949Z,89.43
2018-04-25T01:41:06.499Z,89.43
2018-04-25T01:42:07.056Z,89.05
2018-04-25T01:43:07.599Z,88.67
2018-04-25T01:44:08.147Z,88.09
2018-04-25T01:45:08.700Z,88.29
2018-04-25T01:46:09.251Z,88.19
2018-04-25T01:47:09.799Z,88.86
2018-04-25T01:48:10.351Z,88.86
2018-04-25T01:49:10.896Z,88.04
2018-04-25T01:50:11.449Z,88.38
2018-04-25T01:51:11.999Z,88.48
2018-04-25T01:52:12.558Z,88.48
2018-04-25T01:53:13.092Z,88.57
2018-04-25T01:54:13.641Z,88.48
2018-04-25T01:55:14.180Z,88.86
2018-04-25T01:56:14.736Z,88.00
2018-04-25T01:57:15.284Z,88.86
2018-04-25T01:58:15.842Z,88.76
2018-04-25T01:59:16.389Z,88.57
2018-04-25T02:00:16.936Z,88.48
2018-04-25T02:01:17.487Z,88.86
2018-04-25T02:02:18.032Z,88.48
2018-04-25T02:03:18.584Z,88.95
2018-04-25T02:04:19.136Z,89.34
2018-04-25T02:05:19.686Z,89.43
2018-04-25T02:06:20.233Z,88.76
2018-04-25T02:07:20.774Z,89.15
2018-04-25T02:08:21.325Z,89.24
2018-04-25T02:09:21.873Z,88.86
2018-04-25T02:10:22.426Z,89.53
2018-04-25T02:11:22.971Z,89.43
2018-04-25T02:12:23.521Z,89.24
2018-04-25T02:13:24.064Z,90.01
2018-04-25T02:14:24.614Z,90.01
2018-04-25T02:15:25.168Z,89.53
2018-04-25T02:16:25.716Z,90.01
2018-04-25T02:17:26.263Z,89.43
2018-04-25T02:18:26.812Z,90.67
2018-04-25T02:19:27.362Z,90.87
2018-04-25T02:20:27.905Z,90.87
2018-04-25T02:21:28.450Z,90.39
2018-04-25T02:22:29.005Z,90.67
2018-04-25T02:23:29.549Z,90.77
2018-04-25T02:24:30.124Z,90.87
2018-04-25T02:25:30.650Z,91.53
2018-04-25T02:26:31.197Z,91.63
2018-04-25T02:27:31.751Z,91.44
2018-04-25T02:28:32.302Z,92.11
2018-04-25T02:29:32.850Z,91.63
2018-04-25T02:30:33.398Z,91.44
2018-04-25T02:31:33.946Z,91.63
2018-04-25T02:32:34.491Z,91.63
2018-04-25T02:33:35.040Z,91.44
2018-04-25T02:34:35.590Z,92.11
2018-04-25T02:35:36.136Z,92.02
2018-04-25T02:36:36.682Z,91.63
2018-04-25T02:37:37.233Z,91.63
2018-04-25T02:38:37.781Z,92.02
2018-04-25T02:39:38.333Z,92.16
2018-04-25T02:40:38.883Z,92.25
2018-04-25T02:41:39.426Z,92.35
2018-04-25T02:42:39.978Z,92.93
2018-04-25T02:43:40.531Z,92.74
2018-04-25T02:44:41.081Z,92.78
2018-04-25T02:45:41.629Z,92.93
2018-04-25T02:46:42.179Z,93.21
2018-04-25T02:47:42.730Z,93.31
2018-04-25T02:48:43.280Z,93.69
2018-04-25T02:49:43.823Z,93.40
2018-04-25T02:50:44.377Z,94.84
2018-04-25T02:51:44.922Z,94.07
2018-04-25T02:52:45.478Z,94.26
2018-04-25T02:53:46.027Z,94.60
2018-04-25T02:54:46.575Z,95.12
2018-04-25T02:55:47.129Z,94.84
2018-04-25T02:56:47.678Z,95.12
2018-04-25T02:57:48.220Z,94.07
2018-04-25T02:58:48.798Z,94.26
2018-04-25T02:59:49.313Z,94.46
2018-04-25T03:00:49.857Z,94.65
2018-04-25T03:01:50.406Z,94.74
2018-04-25T03:02:50.955Z,94.74
2018-04-25T03:03:51.502Z,95.03
2018-04-25T03:04:52.048Z,95.70
2018-04-25T03:05:52.591Z,94.74
2018-04-25T03:06:53.142Z,95.79
2018-04-25T03:07:53.685Z,95.41
2018-04-25T03:08:54.237Z,96.08
2018-04-25T03:09:54.787Z,96.08
2018-04-25T03:10:55.339Z,96.37
2018-04-25T03:11:55.883Z,95.98
2018-04-25T03:12:56.438Z,96.66
2018-04-25T03:13:56.976Z,96.66
2018-04-25T03:14:57.524Z,96.56
2018-04-25T03:15:58.070Z,95.98
2018-04-25T03:16:58.616Z,95.98
2018-04-25T03:17:59.166Z,95.79
2018-04-25T03:18:59.710Z,95.41
2018-04-25T03:20:00.265Z,95.61
2018-04-25T03:21:00.807Z,95.98
2018-04-25T03:22:01.358Z,96.18
2018-04-25T03:23:01.903Z,95.89
2018-04-25T03:24:02.451Z,95.32
2018-04-25T03:25:03.000Z,95.51
2018-04-25T03:26:03.549Z,95.89
2018-04-25T03:27:04.103Z,96.56
2018-04-25T03:28:04.649Z,96.37
2018-04-25T03:29:05.197Z,96.56
2018-04-25T03:30:05.746Z,96.37
2018-04-25T03:31:06.302Z,96.75
2018-04-25T03:32:06.841Z,96.66
2018-04-25T03:33:07.386Z,96.47
2018-04-25T03:34:07.939Z,96.37
2018-04-25T03:35:08.490Z,96.47
2018-04-25T03:36:09.043Z,97.23
2018-04-25T03:37:09.587Z,97.04
2018-04-25T03:38:10.136Z,97.04
2018-04-25T03:39:10.689Z,97.04
2018-04-25T03:40:11.236Z,97.04
2018-04-25T03:41:11.796Z,96.94
2018-04-25T03:42:12.337Z,97.52
2018-04-25T03:43:12.891Z,97.42
2018-04-25T03:44:13.439Z,96.94
2018-04-25T03:45:13.983Z,97.13
2018-04-25T03:46:14.531Z,97.23
2018-04-25T03:47:15.079Z,97.61
2018-04-25T03:48:15.631Z,97.04
2018-04-25T03:49:16.178Z,97.61
2018-04-25T03:50:16.726Z,97.52
2018-04-25T03:51:17.279Z,97.61
2018-04-25T03:52:17.823Z,97.80
2018-04-25T03:53:18.373Z,97.42
2018-04-25T03:54:18.915Z,97.80
2018-04-25T03:55:19.462Z,98.18
2018-04-25T03:56:20.011Z,98.28
2018-04-25T03:57:20.566Z,97.99
2018-04-25T03:58:21.117Z,97.99
2018-04-25T03:59:21.666Z,97.90
2018-04-25T04:00:22.248Z,98.38
2018-04-25T04:01:22.762Z,98.47
2018-04-25T04:02:23.314Z,98.38
2018-04-25T04:03:23.859Z,98.47
2018-04-25T04:04:24.422Z,98.75
2018-04-25T04:05:24.959Z,99.04
2018-04-25T04:06:25.509Z,98.66
2018-04-25T04:07:26.099Z,99.14
2018-04-25T04:08:26.604Z,99.33
2018-04-25T04:09:27.164Z,99.24
2018-04-25T04:10:27.704Z,99.62
2018-04-25T04:11:28.255Z,99.52
2018-04-25T04:12:28.806Z,99.43
2018-04-25T04:13:29.354Z,99.90
2018-04-25T04:14:29.905Z,99.99
2018-04-25T04:15:30.455Z,99.99
2018-04-25T04:16:31.005Z,99.99
2018-04-25T04:17:31.556Z,99.99
2018-04-25T04:18:32.103Z,99.99
2018-04-25T04:19:32.656Z,99.99
2018-04-25T04:20:33.212Z,99.99
2018-04-25T04:21:33.760Z,99.99
2018-04-25T04:22:34.313Z,99.99
2018-04-25T04:23:34.865Z,99.99
2018-04-25T04:24:35.482Z,99.99
2018-04-25T04:25:36.026Z,99.99
2018-04-25T04:26:36.571Z,99.99
2018-04-25T04:27:37.127Z,99.99
2018-04-25T04:28:37.691Z,99.99
2018-04-25T04:29:38.233Z,99.99
2018-04-25T04:30:38.775Z,99.99
2018-04-25T04:31:39.329Z,99.99
2018-04-25T04:32:39.883Z,99.99
2018-04-25T04:33:40.436Z,99.99
2018-04-25T04:34:40.983Z,99.99
2018-04-25T04:35:41.532Z,99.99
2018-04-25T04:36:42.079Z,99.99
2018-04-25T04:37:42.625Z,99.99
2018-04-25T04:38:43.180Z,99.99
2018-04-25T04:39:43.731Z,99.99
2018-04-25T04:40:44.286Z,99.99
2018-04-25T04:41:44.833Z,99.99
2018-04-25T04:42:45.386Z,99.99
2018-04-25T04:43:45.939Z,99.99
2018-04-25T04:44:46.486Z,99.99
2018-04-25T04:45:47.039Z,99.99
2018-04-25T04:46:47.588Z,99.99
2018-04-25T04:47:48.141Z,99.99
2018-04-25T04:48:48.692Z,99.99
2018-04-25T04:49:49.249Z,99.99
2018-04-25T04:50:49.803Z,99.99
2018-04-25T04:51:50.357Z,99.99
2018-04-25T04:52:50.913Z,99.99
2018-04-25T04:53:51.463Z,99.99
2018-04-25T04:54:52.020Z,99.99
2018-04-25T04:55:52.566Z,99.99
2018-04-25T04:56:53.121Z,99.99
2018-04-25T04:57:53.671Z,99.99
2018-04-25T04:58:54.227Z,99.99
2018-04-25T04:59:54.781Z,99.99
2018-04-25T05:00:55.330Z,99.99
2018-04-25T05:01:55.888Z,99.99
2018-04-25T05:02:56.439Z,99.99
2018-04-25T05:03:56.993Z,99.99
2018-04-25T05:04:57.545Z,99.99
2018-04-25T05:05:58.100Z,99.99
2018-04-25T05:06:58.656Z,99.99
2018-04-25T05:07:59.206Z,99.95
2018-04-25T05:08:59.760Z,99.99
2018-04-25T05:10:00.334Z,99.99
2018-04-25T05:11:00.877Z,99.99
2018-04-25T05:12:01.429Z,99.99
2018-04-25T05:13:02.049Z,99.99
2018-04-25T05:14:02.538Z,99.99
2018-04-25T05:15:03.093Z,99.99
2018-04-25T05:16:03.654Z,99.99
2018-04-25T05:17:04.205Z,99.85
2018-04-25T05:18:04.758Z,99.57
2018-04-25T05:19:05.311Z,99.76
2018-04-25T05:20:05.865Z,99.48
2018-04-25T05:21:06.419Z,99.28
2018-04-25T05:22:06.973Z,99.38
2018-04-25T05:23:07.534Z,98.80
2018-04-25T05:24:08.080Z,98.90
2018-04-25T05:25:08.632Z,98.52
2018-04-25T05:26:09.199Z,98.23
2018-04-25T05:27:09.745Z,98.80
2018-04-25T05:28:10.298Z,98.04
2018-04-25T05:29:10.857Z,98.13
2018-04-25T05:30:11.415Z,98.99
2018-04-25T05:31:12.005Z,99.99
2018-04-25T05:32:12.554Z,99.99
2018-04-25T05:33:13.086Z,99.99
2018-04-25T05:34:13.645Z,99.99
2018-04-25T05:35:14.195Z,99.99
2018-04-25T05:36:14.757Z,99.99
2018-04-25T05:37:15.324Z,99.99
2018-04-25T05:38:15.877Z,99.99
2018-04-25T05:39:16.429Z,99.99
2018-04-25T05:40:16.983Z,99.99
2018-04-25T05:41:17.534Z,99.99
2018-04-25T05:42:18.086Z,99.99
2018-04-25T05:43:18.643Z,99.99
2018-04-25T05:44:19.208Z,99.99
2018-04-25T05:45:19.747Z,99.99
2018-04-25T05:46:20.301Z,99.99
2018-04-25T05:47:20.857Z,99.99
2018-04-25T05:48:21.411Z,99.99
2018-04-25T05:49:21.965Z,99.99
2018-04-25T05:50:22.523Z,99.99
2018-04-25T05:51:23.077Z,99.99
2018-04-25T05:52:23.624Z,99.99
2018-04-25T05:53:24.183Z,99.99
2018-04-25T05:54:24.734Z,99.99
2018-04-25T05:55:25.284Z,99.99
2018-04-25T05:56:25.841Z,99.99
2018-04-25T05:57:26.394Z,99.99
2018-04-25T05:58:26.947Z,99.99
2018-04-25T05:59:27.504Z,99.99
2018-04-25T06:00:28.060Z,99.99
2018-04-25T06:01:28.613Z,99.99
2018-04-25T06:02:29.163Z,99.99
2018-04-25T06:03:29.713Z,99.99
2018-04-25T06:04:30.274Z,99.99
2018-04-25T06:05:30.824Z,99.99
2018-04-25T06:06:31.372Z,99.99
2018-04-25T06:07:31.930Z,99.99
2018-04-25T06:08:32.491Z,99.99
2018-04-25T06:09:33.042Z,99.99
2018-04-25T06:10:33.604Z,99.99
2018-04-25T06:11:34.166Z,99.99
2018-04-25T06:12:34.791Z,99.99
2018-04-25T06:13:35.275Z,99.99
2018-04-25T06:14:35.822Z,99.99
2018-04-25T06:15:36.375Z,99.99
2018-04-25T06:16:36.931Z,99.99
2018-04-25T06:17:37.488Z,99.99
2018-04-25T06:18:38.050Z,99.99
2018-04-25T06:19:38.599Z,99.99
2018-04-25T06:20:39.155Z,99.99
2018-04-25T06:21:39.716Z,99.99
2018-04-25T06:22:40.258Z,99.99
2018-04-25T06:23:40.815Z,99.99
2018-04-25T06:24:41.374Z,99.99
2018-04-25T06:25:41.923Z,99.99
2018-04-25T06:26:42.486Z,99.99
2018-04-25T06:27:43.039Z,99.99
2018-04-25T06:28:43.587Z,99.99
2018-04-25T06:29:44.143Z,99.99
2018-04-25T06:30:44.783Z,99.99
2018-04-25T06:31:45.291Z,99.99
2018-04-25T06:32:45.854Z,99.99
2018-04-25T06:33:46.397Z,99.99
2018-04-25T06:34:46.951Z,99.99
2018-04-25T06:35:47.504Z,99.99
2018-04-25T06:36:48.060Z,99.99
2018-04-25T06:37:48.612Z,99.99
2018-04-25T06:38:49.169Z,99.99
2018-04-25T06:39:49.725Z,99.99
2018-04-25T06:40:50.278Z,99.99
2018-04-25T06:41:50.838Z,99.99
2018-04-25T06:42:51.395Z,99.99
2018-04-25T06:43:51.952Z,99.99
2018-04-25T06:44:52.591Z,99.99
2018-04-25T06:45:53.057Z,99.99
2018-04-25T06:46:53.607Z,99.99
2018-04-25T06:47:54.160Z,99.99
2018-04-25T06:48:54.711Z,99.99
2018-04-25T06:49:55.261Z,99.99
2018-04-25T06:50:55.817Z,99.99
2018-04-25T06:51:56.374Z,99.99
2018-04-25T06:52:56.925Z,99.99
2018-04-25T06:53:57.483Z,99.99
2018-04-25T06:54:58.105Z,99.99
2018-04-25T06:55:58.656Z,99.99
2018-04-25T06:56:59.213Z,99.99
2018-04-25T06:57:59.764Z,99.99
2018-04-25T06:59:00.329Z,99.99
2018-04-25T07:00:00.874Z,99.99
2018-04-25T07:01:01.433Z,99.99
2018-04-25T07:02:01.983Z,99.99
2018-04-25T07:03:02.539Z,99.99
2018-04-25T07:04:03.101Z,99.99
2018-04-25T07:05:03.658Z,99.99
2018-04-25T07:06:04.220Z,99.99
2018-04-25T07:07:04.772Z,99.99
2018-04-25T07:08:05.399Z,99.99
2018-04-25T07:09:05.873Z,99.99
2018-04-25T07:10:06.446Z,99.99
2018-04-25T07:11:07.003Z,99.99
2018-04-25T07:12:07.554Z,99.99
2018-04-25T07:13:08.113Z,99.99
2018-04-25T07:14:08.688Z,99.99
2018-04-25T07:15:09.222Z,99.99
2018-04-25T07:16:09.783Z,99.99
2018-04-25T07:17:10.344Z,99.99
2018-04-25T07:18:10.905Z,99.99
2018-04-25T07:19:11.463Z,99.99
2018-04-25T07:20:12.022Z,99.99
2018-04-25T07:21:12.590Z,99.99
2018-04-25T07:22:13.156Z,99.99
2018-04-25T07:23:13.718Z,99.99
2018-04-25T07:24:14.274Z,99.99
2018-04-25T07:25:14.838Z,99.99
2018-04-25T07:26:15.398Z,99.99
2018-04-25T07:27:15.966Z,99.99
2018-04-25T07:28:16.517Z,99.99
2018-04-25T07:29:17.074Z,99.99
2018-04-25T07:30:17.630Z,99.99
2018-04-25T07:31:18.196Z,99.99
2018-04-25T07:32:18.758Z,99.99
2018-04-25T07:33:19.323Z,99.99
2018-04-25T07:34:19.880Z,99.99
2018-04-25T07:35:20.457Z,99.99
2018-04-25T07:36:20.998Z,99.99
2018-04-25T07:37:21.561Z,99.99
2018-04-25T07:38:22.161Z,99.99
2018-04-25T07:39:22.688Z,99.99
2018-04-25T07:40:23.246Z,99.99
2018-04-25T07:41:23.808Z,99.99
2018-04-25T07:42:24.357Z,99.99
2018-04-25T07:43:24.915Z,99.99
2018-04-25T07:44:25.467Z,99.99
2018-04-25T07:45:26.024Z,99.99
2018-04-25T07:46:26.576Z,99.99
2018-04-25T07:47:27.131Z,99.99
2018-04-25T07:48:27.685Z,99.99
2018-04-25T07:49:28.244Z,99.99
2018-04-25T07:50:28.806Z,99.99
2018-04-25T07:51:29.370Z,99.99
2018-04-25T07:52:29.932Z,99.99
2018-04-25T07:53:30.489Z,99.99
2018-04-25T07:54:31.050Z,99.96
2018-04-25T07:55:31.619Z,98.67
2018-04-25T07:56:32.198Z,97.80
2018-04-25T07:57:32.769Z,93.78
2018-04-25T07:58:33.340Z,93.63
2018-04-25T07:59:33.920Z,92.29
2018-04-25T08:00:34.500Z,88.74
2018-04-25T08:01:35.080Z,88.31
2018-04-25T08:02:35.657Z,86.38
2018-04-25T08:03:36.236Z,86.05
2018-04-25T08:04:36.819Z,84.74
2018-04-25T08:05:37.388Z,83.59
2018-04-25T08:06:38.031Z,82.57
2018-04-25T08:07:38.555Z,81.46
2018-04-25T08:08:39.133Z,79.69
2018-04-25T08:09:39.718Z,80.22
2018-04-25T08:10:40.305Z,80.04
2018-04-25T08:11:40.880Z,79.42
2018-04-25T08:12:41.450Z,80.38
2018-04-25T08:13:42.022Z,79.65
2018-04-25T08:14:42.610Z,77.29
2018-04-25T08:15:43.194Z,76.71
2018-04-25T08:16:43.781Z,76.36
2018-04-25T08:17:44.366Z,75.31
2018-04-25T08:18:44.948Z,75.17
2018-04-25T08:19:45.528Z,75.21
2018-04-25T08:20:46.101Z,74.25
2018-04-25T08:21:46.681Z,75.46
2018-04-25T08:22:47.261Z,74.75
2018-04-25T08:23:47.927Z,75.52
2018-04-25T08:24:48.420Z,76.29
2018-04-25T08:25:48.997Z,75.52
2018-04-25T08:26:49.785Z,76.25
2018-04-25T08:27:50.366Z,76.54
2018-04-25T08:28:50.941Z,76.64
2018-04-25T08:29:51.747Z,76.92
2018-04-25T08:30:52.363Z,76.54
2018-04-25T08:31:52.939Z,77.21
2018-04-25T08:32:53.513Z,76.39
2018-04-25T08:33:54.074Z,76.04
2018-04-25T08:34:54.653Z,74.11
2018-04-25T08:35:55.227Z,73.28
2018-04-25T08:36:55.852Z,73.71
2018-04-25T08:37:56.434Z,71.40
2018-04-25T08:38:57.018Z,70.92
2018-04-25T08:39:57.606Z,71.53
2018-04-25T08:40:58.190Z,70.73
2018-04-25T08:41:58.766Z,68.61
2018-04-25T08:42:59.347Z,68.10
2018-04-25T08:43:59.931Z,68.42
2018-04-25T08:45:00.583Z,67.13
2018-04-25T08:46:01.090Z,66.97
2018-04-25T08:47:01.664Z,66.01
2018-04-25T08:48:02.243Z,66.30
2018-04-25T08:49:02.820Z,66.75
2018-04-25T08:50:03.398Z,66.78
2018-04-25T08:51:03.975Z,65.81
2018-04-25T08:52:04.552Z,64.66
2018-04-25T08:53:05.122Z,64.89
2018-04-25T08:54:05.685Z,64.11
2018-04-25T08:55:06.274Z,64.40
2018-04-25T08:56:06.848Z,63.85
2018-04-25T08:57:07.431Z,63.70
2018-04-25T08:58:07.997Z,61.77
2018-04-25T08:59:08.575Z,62.15
2018-04-25T09:00:09.158Z,61.25
2018-04-25T09:01:09.747Z,61.64
2018-04-25T09:02:10.331Z,62.05
2018-04-25T09:03:10.925Z,62.05
2018-04-25T09:04:11.716Z,60.13
2018-04-25T09:05:12.433Z,59.38
2018-04-25T09:06:13.004Z,59.22
2018-04-25T09:07:13.589Z,59.16
2018-04-25T09:08:14.181Z,59.93
2018-04-25T09:09:14.769Z,60.19
2018-04-25T09:10:15.352Z,60.19
2018-04-25T09:11:15.929Z,61.22
2018-04-25T09:12:16.509Z,62.06
2018-04-25T09:13:17.155Z,62.63
2018-04-25T09:14:17.645Z,63.28
2018-04-25T09:15:18.211Z,63.57
2018-04-25T09:16:18.791Z,64.02
2018-04-25T09:17:19.367Z,64.69
2018-04-25T09:18:19.931Z,65.24
2018-04-25T09:19:20.502Z,66.55
2018-04-25T09:20:21.077Z,68.19
2018-04-25T09:21:21.647Z,69.89
2018-04-25T09:22:22.207Z,71.64
2018-04-25T09:23:22.777Z,72.99
2018-04-25T09:24:23.359Z,74.10
2018-04-25T09:25:23.935Z,74.93
2018-04-25T09:26:24.501Z,75.60
2018-04-25T09:27:25.070Z,75.98
2018-04-25T09:28:25.625Z,76.42
2018-04-25T09:29:26.191Z,77.29
2018-04-25T09:30:26.761Z,77.63
2018-04-25T09:31:27.329Z,78.11
2018-04-25T09:32:27.893Z,78.93
2018-04-25T09:33:28.460Z,79.80
2018-04-25T09:34:29.085Z,81.13
2018-04-25T09:35:29.598Z,81.13
2018-04-25T09:36:30.167Z,81.23
2018-04-25T09:37:30.726Z,81.67
2018-04-25T09:38:31.294Z,82.15
2018-04-25T09:39:31.857Z,82.24
2018-04-25T09:40:32.425Z,82.06
2018-04-25T09:41:32.981Z,82.01
2018-04-25T09:42:33.552Z,82.97
2018-04-25T09:43:34.111Z,82.68
2018-04-25T09:44:34.894Z,83.45
2018-04-25T09:45:35.457Z,82.87
2018-04-25T09:46:36.017Z,84.17
2018-04-25T09:47:36.584Z,84.65
2018-04-25T09:48:37.155Z,85.13
2018-04-25T09:49:37.717Z,85.41
2018-04-25T09:50:38.270Z,86.47
2018-04-25T09:51:38.836Z,86.47
2018-04-25T09:52:39.395Z,86.66
2018-04-25T09:53:39.960Z,86.37
2018-04-25T09:54:40.532Z,86.66
2018-04-25T09:55:41.102Z,86.66
2018-04-25T09:56:41.664Z,86.33
2018-04-25T09:57:42.275Z,86.57
2018-04-25T09:58:42.802Z,87.29
2018-04-25T09:59:43.378Z,87.38
2018-04-25T10:00:43.950Z,87.86
2018-04-25T10:01:44.524Z,87.76
2018-04-25T10:02:45.100Z,88.00
2018-04-25T10:03:45.670Z,87.81
2018-04-25T10:04:46.248Z,87.52
2018-04-25T10:05:46.798Z,87.23
2018-04-25T10:06:47.573Z,86.66
2018-04-25T10:07:48.157Z,86.51
2018-04-25T10:08:48.730Z,85.12
2018-04-25T10:09:49.296Z,84.55
2018-04-25T10:10:49.891Z,84.45
2018-04-25T10:11:50.446Z,84.64
2018-04-25T10:12:51.020Z,83.97
2018-04-25T10:13:51.589Z,83.87
2018-04-25T10:14:52.286Z,84.35
2018-04-25T10:15:52.864Z,84.55
2018-04-25T10:16:53.420Z,83.39
2018-04-25T10:17:54.002Z,83.97
2018-04-25T10:18:54.574Z,83.11
2018-04-25T10:19:55.343Z,82.92
2018-04-25T10:20:55.920Z,82.86
2018-04-25T10:21:56.692Z,82.38
2018-04-25T10:22:57.269Z,82.38
2018-04-25T10:23:57.887Z,81.95
2018-04-25T10:24:58.406Z,81.37
2018-04-25T10:25:58.973Z,80.64
2018-04-25T10:26:59.554Z,79.68
2018-04-25T10:28:00.113Z,78.19
2018-04-25T10:29:00.683Z,77.90
2018-04-25T10:30:01.256Z,77.23
2018-04-25T10:31:01.830Z,76.71
2018-04-25T10:32:02.470Z,76.81
2018-04-25T10:33:03.024Z,76.81
2018-04-25T10:34:03.606Z,77.23
2018-04-25T10:35:04.191Z,77.42
2018-04-25T10:36:04.766Z,76.75
2018-04-25T10:37:05.532Z,75.70
2018-04-25T10:38:06.109Z,74.77
2018-04-25T10:39:06.692Z,74.10
2018-04-25T10:40:07.276Z,72.66
2018-04-25T10:41:07.861Z,71.22
2018-04-25T10:42:08.428Z,70.55
2018-04-25T10:43:09.006Z,69.87
2018-04-25T10:44:09.883Z,69.78
2018-04-25T10:45:10.387Z,69.59
2018-04-25T10:46:10.968Z,69.30
2018-04-25T10:47:11.555Z,68.73
2018-04-25T10:48:12.122Z,67.03
2018-04-25T10:49:12.706Z,66.30
2018-04-25T10:50:13.285Z,64.50
2018-04-25T10:51:13.868Z,64.98
2018-04-25T10:52:14.451Z,64.05
2018-04-25T10:53:15.233Z,63.60
2018-04-25T10:54:15.814Z,62.67
2018-04-25T10:55:16.425Z,61.87
2018-04-25T10:56:16.975Z,62.09
2018-04-25T10:57:17.975Z,61.80
2018-04-25T10:58:18.844Z,61.19
2018-04-25T10:59:19.412Z,61.07
2018-04-25T11:00:19.988Z,61.04
2018-04-25T11:01:20.565Z,61.81
2018-04-25T11:02:21.154Z,62.26
2018-04-25T11:03:21.702Z,63.60
2018-04-25T11:04:22.265Z,64.43
2018-04-25T11:05:22.840Z,66.36
2018-04-25T11:06:23.426Z,67.96
2018-04-25T11:07:23.999Z,68.85
2018-04-25T11:08:24.660Z,68.66
2018-04-25T11:09:25.144Z,68.12
2018-04-25T11:10:25.712Z,67.68
2018-04-25T11:11:26.294Z,66.36
2018-04-25T11:12:26.854Z,64.92
2018-04-25T11:13:27.441Z,64.05
2018-04-25T11:14:28.025Z,63.57
2018-04-25T11:15:28.806Z,63.38
2018-04-25T11:16:29.386Z,63.22
2018-04-25T11:17:29.964Z,61.80
2018-04-25T11:18:30.538Z,61.29
2018-04-25T11:19:31.123Z,62.16
2018-04-25T11:20:31.904Z,62.64
2018-04-25T11:21:32.472Z,62.26
2018-04-25T11:22:33.259Z,62.54
2018-04-25T11:23:33.838Z,61.94
2018-04-25T11:24:34.409Z,62.38
2018-04-25T11:25:34.991Z,62.38
2018-04-25T11:26:35.636Z,62.51
2018-04-25T11:27:36.143Z,62.32
2018-04-25T11:28:36.717Z,62.48
2018-04-25T11:29:37.484Z,63.06
2018-04-25T11:30:38.054Z,63.02
2018-04-25T11:31:38.623Z,63.19
2018-04-25T11:32:39.195Z,63.57
2018-04-25T11:33:39.773Z,64.69
2018-04-25T11:34:40.348Z,64.89
2018-04-25T11:35:40.921Z,65.65
2018-04-25T11:36:41.490Z,66.19
2018-04-25T11:37:42.054Z,66.39
2018-04-25T11:38:42.608Z,66.29
2018-04-25T11:39:43.170Z,66.06
2018-04-25T11:40:43.739Z,66.35
2018-04-25T11:41:44.522Z,66.93
2018-04-25T11:42:45.091Z,67.60
2018-04-25T11:43:45.641Z,67.41
2018-04-25T11:44:46.211Z,67.63
2018-04-25T11:45:46.775Z,66.55
2018-04-25T11:46:47.341Z,64.92
2018-04-25T11:47:47.912Z,63.76
2018-04-25T11:48:48.485Z,64.15
2018-04-25T11:49:49.053Z,63.67
2018-04-25T11:50:49.627Z,64.15
2018-04-25T11:51:50.197Z,63.67
2018-04-25T11:52:50.750Z,63.48
2018-04-25T11:53:51.308Z,64.72
2018-04-25T11:54:51.863Z,65.40
2018-04-25T11:55:52.427Z,66.55
2018-04-25T11:56:52.988Z,67.09
2018-04-25T11:57:53.555Z,67.41
2018-04-25T11:58:54.133Z,67.38
2018-04-25T11:59:54.691Z,66.71
2018-04-25T12:00:55.253Z,67.29
2018-04-25T12:01:55.829Z,67.22
2018-04-25T12:02:56.466Z,66.30
2018-04-25T12:03:56.978Z,65.33
2018-04-25T12:04:57.575Z,63.99
2018-04-25T12:05:58.134Z,63.41
2018-04-25T12:06:58.716Z,62.87
2018-04-25T12:07:59.294Z,61.52
2018-04-25T12:08:59.877Z,60.94
2018-04-25T12:10:00.457Z,61.04
2018-04-25T12:11:01.020Z,60.49
2018-04-25T12:12:01.605Z,60.14
2018-04-25T12:13:02.248Z,59.15
2018-04-25T12:14:02.767Z,59.63
2018-04-25T12:15:03.347Z,60.11
2018-04-25T12:16:03.908Z,59.99
2018-04-25T12:17:04.477Z,60.17
2018-04-25T12:18:05.053Z,60.05
2018-04-25T12:19:05.632Z,61.01
2018-04-25T12:20:06.188Z,61.30
2018-04-25T12:21:06.746Z,62.45
2018-04-25T12:22:07.312Z,62.71
2018-04-25T12:23:07.891Z,61.75
2018-04-25T12:24:08.461Z,62.77
2018-04-25T12:25:09.085Z,63.35
2018-04-25T12:26:09.658Z,63.16
2018-04-25T12:27:10.442Z,63.35
2018-04-25T12:28:11.008Z,64.31
2018-04-25T12:29:11.590Z,64.59
2018-04-25T12:30:12.153Z,63.92
2018-04-25T12:31:12.720Z,63.70
2018-04-25T12:32:13.503Z,63.42
2018-04-25T12:33:14.140Z,63.89
2018-04-25T12:34:14.661Z,63.67
2018-04-25T12:35:15.226Z,64.72
2018-04-25T12:36:15.791Z,65.49
2018-04-25T12:37:16.491Z,65.39
2018-04-25T12:38:17.056Z,66.35
2018-04-25T12:39:17.760Z,64.92
2018-04-25T12:40:18.336Z,65.01
2018-04-25T12:41:18.901Z,65.17
2018-04-25T12:42:19.458Z,65.65
2018-04-25T12:43:20.042Z,65.17
2018-04-25T12:44:20.805Z,65.94
2018-04-25T12:45:21.391Z,65.84
2018-04-25T12:46:22.174Z,66.22
2018-04-25T12:47:22.748Z,66.13
2018-04-25T12:48:23.329Z,66.22
2018-04-25T12:49:23.909Z,66.03
2018-04-25T12:50:24.490Z,66.61
2018-04-25T12:51:25.066Z,67.38
2018-04-25T12:52:25.847Z,67.28
2018-04-25T12:53:26.430Z,67.47
2018-04-25T12:54:26.996Z,67.28
2018-04-25T12:55:27.762Z,67.38
2018-04-25T12:56:28.337Z,67.38
2018-04-25T12:57:28.914Z,67.60
2018-04-25T12:58:29.477Z,66.93
2018-04-25T12:59:30.062Z,66.83